createdAt,value
2023-01-15T00:07:52.151Z,0.80
2023-01-15T00:17:55.281Z,0.80
2023-01-15T00:28:01.659Z,0.90
2023-01-15T00:38:05.049Z,0.93
2023-01-15T00:48:09.524Z,0.80
2023-01-15T00:58:12.642Z,1.00
2023-01-15T01:08:17.912Z,0.90
2023-01-15T01:18:20.947Z,0.80
2023-01-15T01:28:25.421Z,0.80
2023-01-15T01:38:28.523Z,1.17
2023-01-15T01:48:34.875Z,0.90
2023-01-15T01:58:38.608Z,0.80
2023-01-15T02:08:43.423Z,0.90
2023-01-15T02:18:52.635Z,1.00
2023-01-15T02:29:00.048Z,0.90
2023-01-15T02:39:08.176Z,0.90
2023-01-15T02:49:20.755Z,1.20
2023-01-15T02:59:28.055Z,1.13
2023-01-15T03:09:33.687Z,1.17
2023-01-15T03:19:43.877Z,0.90
2023-01-15T03:29:50.989Z,0.90
2023-01-15T03:39:54.681Z,0.90
2023-01-15T03:50:06.243Z,0.90
2023-01-15T04:00:14.605Z,0.83
2023-01-15T04:10:19.510Z,0.70
2023-01-15T04:20:23.724Z,0.50
2023-01-15T04:30:28.235Z,0.50
2023-01-15T04:40:48.791Z,0.40
2023-01-15T04:50:54.100Z,0.30
2023-01-15T05:00:57.269Z,0.30
2023-01-15T05:11:04.668Z,0.30
2023-01-15T05:21:07.783Z,0.30
2023-01-15T05:31:14.788Z,0.30
2023-01-15T05:41:37.054Z,0.20
2023-01-15T05:51:42.266Z,0.20
2023-01-15T06:01:45.498Z,0.30
2023-01-15T06:11:50.491Z,0.40
2023-01-15T06:21:53.654Z,0.30
2023-01-15T06:31:58.114Z,0.40
2023-01-15T06:42:18.530Z,0.30
2023-01-15T06:52:23.165Z,0.40
2023-01-15T07:02:26.380Z,0.50
2023-01-15T07:12:30.841Z,0.50
2023-01-15T07:22:34.057Z,0.70
2023-01-15T07:32:38.542Z,0.50
2023-01-15T07:42:59.054Z,0.47
2023-01-15T07:53:03.449Z,0.50
2023-01-15T08:03:06.564Z,0.40
2023-01-15T08:13:28.235Z,0.50
2023-01-15T08:23:31.330Z,0.40
2023-01-15T08:33:35.805Z,0.50
2023-01-15T08:43:38.859Z,0.77
2023-01-15T08:53:43.345Z,0.90
2023-01-15T09:03:46.419Z,0.70
2023-01-15T09:13:51.800Z,0.70
2023-01-15T09:23:54.928Z,0.60
2023-01-15T09:33:59.890Z,0.50
2023-01-15T09:44:15.035Z,0.50
2023-01-15T09:54:32.689Z,0.50
2023-01-15T10:04:41.685Z,0.60
2023-01-15T10:14:51.516Z,0.50
2023-01-15T10:24:58.530Z,0.43
2023-01-15T10:35:29.759Z,0.40
2023-01-15T10:45:38.216Z,0.43
2023-01-15T10:55:46.095Z,0.50
2023-01-15T11:05:49.866Z,0.33
2023-01-15T11:16:11.936Z,0.30
2023-01-15T11:26:21.091Z,0.37
2023-01-15T11:36:26.974Z,0.60
2023-01-15T11:46:49.414Z,0.50
2023-01-15T11:56:56.627Z,0.30
2023-01-15T12:07:00.393Z,0.40
2023-01-15T12:17:14.164Z,0.50
2023-01-15T12:27:35.074Z,0.37
2023-01-15T12:37:45.473Z,0.40
2023-01-15T12:47:55.178Z,0.60
2023-01-15T12:58:02.829Z,0.30
2023-01-15T13:08:12.044Z,0.30
2023-01-15T13:18:26.637Z,0.80
2023-01-15T13:28:50.633Z,0.50
2023-01-15T13:38:58.138Z,0.70
2023-01-15T13:49:01.305Z,0.60
2023-01-15T13:59:07.752Z,0.70
2023-01-15T14:09:13.322Z,0.70
2023-01-15T14:20:01.420Z,0.60
2023-01-15T14:30:18.407Z,0.50
2023-01-15T14:40:24.759Z,0.70
2023-01-15T14:50:39.378Z,0.60
2023-01-15T15:00:47.546Z,0.50
2023-01-15T15:10:55.646Z,0.50
2023-01-15T15:21:06.375Z,0.70
2023-01-15T15:31:12.181Z,0.70
2023-01-15T15:41:15.384Z,0.47
2023-01-15T15:51:31.296Z,0.67
2023-01-15T16:01:39.728Z,0.90
2023-01-15T16:11:44.367Z,0.60
2023-01-15T16:21:47.910Z,0.70
2023-01-15T16:31:55.882Z,1.17
2023-01-15T16:42:02.102Z,0.90
2023-01-15T16:52:36.912Z,0.80
2023-01-15T17:02:46.337Z,0.80
2023-01-15T17:12:51.579Z,0.70
2023-01-15T17:22:55.533Z,1.00
2023-01-15T17:33:01.012Z,0.90
2023-01-15T17:43:04.099Z,2.87
2023-01-15T17:53:09.030Z,1.30
2023-01-15T18:03:35.521Z,1.10
2023-01-15T18:13:41.922Z,0.90
2023-01-15T18:23:45.043Z,0.80
2023-01-15T18:33:49.523Z,0.73
2023-01-15T18:44:09.719Z,1.00
2023-01-15T18:54:14.268Z,1.40
2023-01-15T19:04:19.530Z,1.13
2023-01-15T19:14:42.177Z,1.03
2023-01-15T19:24:46.493Z,1.00
2023-01-15T19:34:52.730Z,1.27
2023-01-15T19:45:13.315Z,2.27
2023-01-15T19:55:18.899Z,1.87
2023-01-15T20:05:22.281Z,2.33
2023-01-15T20:15:27.777Z,3.50
2023-01-15T20:25:31.467Z,2.90
2023-01-15T20:35:35.991Z,1.27
2023-01-15T20:45:39.397Z,1.10
2023-01-15T20:55:55.850Z,1.20
2023-01-15T21:06:02.624Z,1.10
2023-01-15T21:16:09.106Z,1.30
2023-01-15T21:26:12.680Z,1.10
2023-01-15T21:36:17.102Z,0.87
2023-01-15T21:46:20.495Z,1.20
2023-01-15T21:56:25.018Z,1.40
2023-01-15T22:06:28.051Z,1.40
2023-01-15T22:16:32.512Z,2.30
2023-01-15T22:26:36.038Z,3.10
2023-01-15T22:36:40.465Z,2.97
2023-01-15T22:46:44.912Z,3.67
2023-01-15T22:56:49.399Z,3.03
2023-01-15T23:06:53.588Z,2.63
2023-01-15T23:16:58.056Z,2.50
2023-01-15T23:27:01.148Z,2.10
2023-01-15T23:37:05.677Z,2.00
2023-01-15T23:47:09.371Z,2.10
2023-01-15T23:57:13.853Z,2.20
